• Join FlightAware (Why Join?)
  • Login
  • US Flag 
08:02PM EDT


 

Airport Tracker/Info


-or-


 

Live Flight TrackerFlight Track Log ✈ UAL4528 ✈ 09-Apr-2013 ✈ KIAH - KLBB

Flight Track Log - Related Links

Times and Time Zones

All times are in EDT time to prevent confusion due to time zone crossing. See the UAL4528 flight status page for this flight to view local times or setup timezone preferences in your user account.

Time Position Orientation Groundspeed Altitude Reporting Facility
EDT Latitude Longitude Course Direction KTS MPH feet Rate Location/Type
07:12PM 29.9639 -95.3458 291° West 138 159 800  Level Houston Center
07:13PM 29.9531 -95.3469 185° South 140 161 1,500 1,620 Climbing Houston Center
07:13PM 29.9250 -95.3794 225° Southwest 228 262 2,500 1,440 Climbing Houston Center
07:14PM 29.9133 -95.3956 230° Southwest 223 257 3,000 1,620 Climbing Houston Center
07:15PM 29.8703 -95.4528 229° Southwest 234 269 4,800 1,980 Climbing Houston Center
07:16PM 30.0341 -95.8095 276° West  Level FlightAware Approximate
07:16PM 29.8625 -95.5256 263° West 275 316 7,200  Level Houston Center
07:17PM 30.0441 -95.9293 276° West  Level FlightAware Approximate
07:17PM 29.9147 -95.6178 303° West 290 334 9,200  Level Houston Center
07:18PM 30.0653 -96.0460 291° West  Level FlightAware Approximate
07:18PM 29.9456 -95.7078 292° West 304 350 11,100  Level Houston Center
07:19PM 29.9767 -95.7978 292° West 302 348 13,200 1,620 Climbing Houston Center
07:20PM 30.0097 -95.8894 293° West 308 354 14,500 1,080 Climbing Houston Center
07:21PM 30.0447 -95.9892 292° West 331 381 15,500 900 Climbing Houston Center
07:22PM 30.0783 -96.1053 289° West 352 405 16,400 1,080 Climbing Houston Center
07:23PM 30.0944 -96.2203 279° West 363 418 17,800 1,800 Climbing Houston Center
07:24PM 30.1117 -96.3272 281° West 343 395 20,200 1,860 Climbing Houston Center
07:25PM 30.1300 -96.4533 280° West 346 398 21,700 1,260 Climbing Houston Center
07:26PM 30.1469 -96.5669 280° West 354 407 22,900 1,020 Climbing Houston Center
07:27PM 30.1658 -96.6861 280° West 371 427 23,900 900 Climbing Houston Center
07:28PM 30.1833 -96.8075 279° West 378 435 24,800 900 Climbing Houston Center
07:29PM 30.2014 -96.9308 280° West 384 442 25,800 960 Climbing Houston Center
07:30PM 30.2211 -97.0528 281° West 382 440 26,800 1,020 Climbing Houston Center
07:31PM 30.2969 -97.1708 307° West 392 451 28,000 1,020 Climbing Houston Center
07:32PM 30.3706 -97.2661 312° West 391 450 28,900 840 Climbing Houston Center
07:33PM 30.4433 -97.3631 311° West 393 452 29,800 900 Climbing Houston Center
07:34PM 30.5192 -97.4600 312° West 397 457 30,800 900 Climbing Houston Center
07:36PM 30.5919 -97.5583 311° West 398 458 31,700 540 Climbing Houston Center
07:37PM 30.6692 -97.6578 312° West 404 465 32,000 120 Climbing Houston Center
07:38PM 30.7486 -97.7636 311° West 421 484 32,000  Level Houston Center
07:39PM 30.8261 -97.8647 312° West 416 479 32,000  Level Houston Center
07:40PM 30.9025 -97.9681 311° West 415 478 32,000  Level Houston Center
07:41PM 30.9808 -98.0711 312° West 419 482 32,000  Level Houston Center
07:42PM 31.0586 -98.1756 311° West 420 483 32,000  Level Houston Center
07:43PM 31.1511 -98.2969 312° West 423 487 32,000  Level Houston Center
07:44PM 31.2292 -98.4017 311° West 423 487 32,000  Level Houston Center
07:45PM 31.3069 -98.5056 311° West 421 484 32,000  Level Houston Center
07:46PM 31.3869 -98.6181 310° West 417 480 32,000  Level Fort Worth Center
07:47PM 31.4653 -98.7236 311° West 417 480 32,000  Level Fort Worth Center
07:48PM 31.5414 -98.8294 310° West 417 480 32,000  Level Fort Worth Center
07:49PM 31.6153 -98.9283 311° West 417 480 32,000  Level Fort Worth Center
07:50PM 31.6750 -99.0122 310° West 412 474 32,000  Level Fort Worth Center
07:51PM 31.7569 -99.1164 313° West 407 468 32,000  Level Fort Worth Center
07:52PM 31.8308 -99.2203 310° West 412 474 32,000  Level Fort Worth Center
07:53PM 31.9003 -99.3197 309° West 407 468 32,000  Level Fort Worth Center
07:54PM 31.9758 -99.4217 311° West 407 468 32,000  Level Fort Worth Center
07:55PM 32.0494 -99.5214 311° West 407 468 32,000  Level Fort Worth Center
07:56PM 32.1228 -99.6236 310° West 407 468 32,000  Level Fort Worth Center
07:57PM 32.1961 -99.7236 311° West 407 468 32,000  Level Fort Worth Center
07:58PM 32.2653 -99.8211 310° West 407 468 32,000  Level Fort Worth Center
07:59PM 32.3364 -99.9239 309° West 407 468 32,000  Level Fort Worth Center
08:00PM 32.4317 -100.0569 310° West 412 474 32,000  Level Fort Worth Center
08:01PM 32.5067 -100.1625 310° West 412 474 32,000  Level Fort Worth Center
08:02PM 32.5817 -100.2683 310° West 412 474 32,000  Level Fort Worth Center
08:03PM 32.6586 -100.3719 311° West 412 474 32,000  Level Fort Worth Center
08:04PM 32.7272 -100.4706 310° West 406 467 32,000  Level Fort Worth Center
08:05PM 32.7997 -100.5744 310° West 406 467 32,000  Level Fort Worth Center
08:06PM 32.8744 -100.6758 311° West 406 467 32,000 -660 Level Fort Worth Center
08:07PM 32.9447 -100.7800 309° West 406 467 30,700 -1,560 Descending Fort Worth Center
08:08PM 33.0192 -100.8844 310° West 411 473 28,900 -1,800 Descending Fort Worth Center
08:09PM 33.0914 -100.9864 310° West 411 473 27,100 -1,860 Descending Fort Worth Center
08:10PM 33.1572 -101.0883 308° West 414 476 25,300 -1,560 Descending Fort Worth Center
08:10PM 33.1853 -101.1317 308° West 420 483 25,000 -300 Descending Fort Worth Center
08:11PM 33.2394 -101.2008 313° West 421 484 25,000 -300 Level Fort Worth Center
08:11PM 33.2614 -101.2392 304° West 427 491 24,700 -2,040 Descending Fort Worth Center
08:12PM 33.3133 -101.3086 312° West 421 484 23,000 -3,000 Descending Fort Worth Center
08:12PM 33.3372 -101.3469 307° West 420 483 21,700 -3,780 Descending Fort Worth Center
08:13PM 33.3853 -101.4111 312° West 410 472 19,300 -4,080 Descending Fort Worth Center
08:13PM 33.4111 -101.4547 305° West 384 442 17,600 -3,900 Descending Fort Worth Center
08:14PM 33.4489 -101.5111 309° West 393 452 15,400 -4,140 Descending Fort Worth Center
08:14PM 33.4556 -101.5614 279° West 360 414 13,500 -3,840 Descending Fort Worth Center
08:15PM 33.4722 -101.6217 288° West 355 409 11,500 -2,580 Descending Fort Worth Center
08:15PM 33.4706 -101.6714 268° West 330 380 10,900 -1,800 Descending Fort Worth Center
08:16PM 33.4628 -101.7208 259° West 324 373 9,700 -2,160 Descending Fort Worth Center
08:17PM 33.4344 -101.7519 223° Southwest 259 298 8,500 -2,340 Descending Fort Worth Center
08:17PM 33.4072 -101.7531 182° South 215 247 7,400 -2,340 Descending Fort Worth Center
08:18PM 33.3811 -101.7867 227° Southwest 234 269 6,200 -1,920 Descending Fort Worth Center
08:18PM 33.3992 -101.8100 313° West 175 201 5,500 -1,020 Descending Fort Worth Center
08:19PM 33.4256 -101.8311 326° Northwest 211 243 5,200 -420 Descending Fort Worth Center
08:19PM 33.4461 -101.8347 352° North 148 170 5,100 -420 Descending Fort Worth Center
08:20PM 33.4778 -101.8286 North 188 216 4,800 -300 Descending Fort Worth Center
08:20PM 33.5028 -101.8300 357° North 146 168 4,800  Level Fort Worth Center
08:21PM 33.5339 -101.8317 357° North 171 197 4,800  Level Fort Worth Center
08:21PM 33.5444 -101.8297 North 161 185 4,800  Level Fort Worth Center